Amity, Indiana
Current Conditions -  °F | °C
As of 11:55 AM on Saturday 25 Oct 2014 (Local Time) from K1II Reporting Station
Scattered Clouds Scattered Clouds  
Wind Chill: 63°   Ceiling: Unl
Heat Index: 63°   Visibility: 10mi
Dew Point: 55°   Wind: 8mph
Humidity: 77%   Direction: 230°SW
Pressure: 29.99"   Gusts: NA
Location:  39.4841°N, 86.0843°W
Report Text: K1II 251555Z AUTO 23007KT 10SM SCT014 17/13 A2999 RMK AO2
Loading
Personal Weather Stations






























Interactive Weather Map
Tropical Storm Tracking
New forecast layout! Learn more

10-Day Weather Forecast

Advertisements
Track Severe Weather on mobile